Time;durP1;ratioP1;P1;durP2;ratioP2;P2;SDS_P1;SDS_P2;PMS_P1;PMS_P2;Temp;Humidity;BMP_temperature;BMP_pressure;BME280_temperature;BME280_humidity;BME280_pressure;Samples;Min_cycle;Max_cycle;Signal;HPM_P1;HPM_P2
2022/01/23 00:00:15;;;;;;;16.65;8.77;;;-2.40;99.90;;;;;;4955912;29;20024;-96
2022/01/23 00:02:41;;;;;;;19.55;9.43;;;-2.40;99.90;;;;;;4943583;29;20027;-96
2022/01/23 00:05:08;;;;;;;15.10;8.88;;;-2.40;99.90;;;;;;4941598;29;20027;-96
2022/01/23 00:07:34;;;;;;;15.60;8.43;;;-2.40;99.90;;;;;;4940964;29;20055;-96
2022/01/23 00:10:05;;;;;;;18.20;9.00;;;-2.40;99.90;;;;;;4941209;29;20486;-96
2022/01/23 00:12:37;;;;;;;17.65;8.77;;;-2.40;99.90;;;;;;4940630;29;20055;-96
2022/01/23 00:17:48;;;;;;;14.65;8.63;;;-2.40;99.90;;;;;;4943713;29;20031;-96
2022/01/23 00:20:13;;;;;;;19.25;9.55;;;-2.40;99.90;;;;;;4942390;29;20032;-96
2022/01/23 14:30:58;;;;;;;42.33;17.48;;;-3.30;99.90;;;;;;5092375;27;20409;-95
2022/01/23 14:33:40;;;;;;;55.33;25.42;;;-2.90;99.90;;;;;;5093214;28;20025;-96
2022/01/23 14:36:19;;;;;;;44.30;20.45;;;-3.00;99.90;;;;;;5091810;28;20444;-95
2022/01/23 14:39:05;;;;;;;40.58;19.67;;;-2.90;99.90;;;;;;5090550;28;20047;-95
2022/01/23 14:41:34;;;;;;;42.40;18.17;;;-2.90;99.90;;;;;;5090521;28;20016;-95
2022/01/23 14:44:13;;;;;;;43.37;19.20;;;-3.00;99.90;;;;;;5090558;28;20028;-96
2022/01/23 14:46:39;;;;;;;38.28;17.23;;;-2.90;99.90;;;;;;5091465;28;20024;-96
2022/01/23 14:49:10;;;;;;;39.72;17.48;;;-2.90;99.90;;;;;;5090369;28;20028;-96
2022/01/23 14:51:39;;;;;;;36.65;17.08;;;-2.80;99.90;;;;;;5090377;28;20028;-96
2022/01/23 14:54:05;;;;;;;38.28;17.70;;;-2.90;99.90;;;;;;5073551;28;20628;-96
2022/01/23 14:56:35;;;;;;;40.15;17.42;;;-2.90;99.90;;;;;;5090417;28;20058;-96
2022/01/23 14:59:01;;;;;;;;;;;-2.80;99.90;;;;;;5091023;28;20119;-96
2022/01/23 15:01:27;;;;;;;36.45;16.90;;;-2.90;99.90;;;;;;5090441;28;20016;-95
2022/01/23 15:03:53;;;;;;;39.67;17.17;;;-2.80;99.90;;;;;;5090520;28;20024;-95
2022/01/23 15:06:21;;;;;;;40.78;17.50;;;-2.80;99.90;;;;;;5090051;28;20024;-95
2022/01/23 15:08:47;;;;;;;39.67;16.83;;;-2.70;99.90;;;;;;5090162;28;20063;-95
2022/01/23 15:11:13;;;;;;;50.72;20.02;;;-2.80;99.90;;;;;;5090442;28;20024;-96
2022/01/23 15:13:39;;;;;;;35.70;16.83;;;-2.70;99.90;;;;;;5092306;28;20020;-95
2022/01/23 15:16:05;;;;;;;54.00;20.38;;;-2.80;99.90;;;;;;5091454;28;20016;-96
2022/01/23 15:18:32;;;;;;;43.60;16.73;;;-2.80;99.90;;;;;;5090046;28;20086;-95
2022/01/23 15:20:58;;;;;;;42.83;18.90;;;-2.90;99.90;;;;;;5090129;28;20020;-96
2022/01/23 15:23:23;;;;;;;36.22;17.20;;;-2.90;99.90;;;;;;5091456;28;20116;-96
2022/01/23 15:25:49;;;;;;;38.92;17.73;;;-2.90;99.90;;;;;;5090509;28;20024;-95
2022/01/23 15:28:15;;;;;;;38.08;17.33;;;-2.90;99.90;;;;;;5090109;28;20166;-95
2022/01/23 15:30:42;;;;;;;39.95;17.77;;;-2.90;99.90;;;;;;5089955;28;20103;-94
2022/01/23 15:33:09;;;;;;;53.88;19.58;;;-2.90;99.90;;;;;;5090491;28;20017;-93
2022/01/23 15:35:37;;;;;;;41.38;17.80;;;-2.90;99.90;;;;;;5088368;28;20319;-93
2022/01/23 15:38:04;;;;;;;38.03;17.40;;;-2.90;99.90;;;;;;5089643;28;20394;-96
2022/01/23 15:40:30;;;;;;;40.33;19.35;;;-2.90;99.90;;;;;;5085634;28;20029;-95
2022/01/23 15:42:56;;;;;;;39.75;19.30;;;-2.90;99.90;;;;;;5076097;28;20497;-95
2022/01/23 15:45:24;;;;;;;43.85;20.20;;;-2.90;99.90;;;;;;5076147;28;20467;-94
2022/01/23 15:47:51;;;;;;;41.60;19.52;;;-2.90;99.90;;;;;;5075802;28;20025;-95
2022/01/23 15:50:19;;;;;;;44.83;20.27;;;-2.90;99.90;;;;;;5076037;28;20035;-96
2022/01/23 15:52:46;;;;;;;43.90;20.65;;;-2.90;99.90;;;;;;5076720;28;20458;-96
2022/01/23 15:55:13;;;;;;;46.50;20.02;;;-2.90;99.90;;;;;;5076048;28;20031;-94
2022/01/23 15:57:40;;;;;;;48.90;19.85;;;-2.90;99.90;;;;;;5076707;28;20020;-95
2022/01/23 16:00:09;;;;;;;44.97;20.05;;;-2.80;99.90;;;;;;5075703;28;20034;-95
2022/01/23 16:02:35;;;;;;;41.75;19.77;;;-2.70;99.90;;;;;;5075557;28;20029;-95
2022/01/23 16:05:01;;;;;;;47.90;18.55;;;-2.60;99.90;;;;;;5075415;28;20532;-92
2022/01/23 16:07:27;;;;;;;46.65;19.60;;;-2.60;99.90;;;;;;5075491;28;20024;-93
2022/01/23 16:09:52;;;;;;;51.78;20.02;;;-2.60;99.90;;;;;;5075640;28;20166;-95
2022/01/23 16:12:19;;;;;;;51.28;21.02;;;-2.50;99.90;;;;;;5075558;28;20031;-93
2022/01/23 16:14:45;;;;;;;46.90;19.88;;;-2.50;99.90;;;;;;5075499;28;20050;-94
2022/01/23 16:17:11;;;;;;;51.75;21.23;;;-2.60;99.90;;;;;;5075105;28;20490;-94
2022/01/23 16:19:37;;;;;;;48.08;21.63;;;-2.70;99.90;;;;;;5074927;28;20137;-95
2022/01/23 16:22:04;;;;;;;58.92;24.58;;;-2.70;99.90;;;;;;5074968;28;20438;-94
2022/01/23 16:24:30;;;;;;;54.55;25.02;;;-2.60;99.90;;;;;;5074595;28;20028;-94
2022/01/23 16:26:56;;;;;;;52.28;23.75;;;-2.70;99.90;;;;;;5074014;28;20078;-94
2022/01/23 16:29:24;;;;;;;55.00;24.73;;;-2.70;99.90;;;;;;5074637;28;20429;-96
2022/01/23 16:31:51;;;;;;;55.80;24.98;;;-2.60;99.90;;;;;;5074889;28;20027;-95
2022/01/23 16:34:21;;;;;;;40.05;19.60;;;-2.60;99.90;;;;;;5075439;28;20031;-96
2022/01/23 16:36:47;;;;;;;46.45;23.02;;;-2.60;99.90;;;;;;5074762;28;20025;-94
2022/01/23 16:39:15;;;;;;;40.08;19.58;;;-2.50;99.90;;;;;;5074598;28;20024;-95
2022/01/23 16:41:43;;;;;;;46.72;21.40;;;-2.60;99.90;;;;;;5075180;28;20021;-95
2022/01/23 16:44:10;;;;;;;50.78;20.80;;;-2.70;99.90;;;;;;5075300;28;20111;-95
2022/01/23 16:46:40;;;;;;;42.33;20.00;;;-2.70;99.90;;;;;;5074618;28;20028;-96
2022/01/23 16:49:07;;;;;;;;;;;-2.70;99.90;;;;;;5075182;28;20070;-96
2022/01/23 16:51:37;;;;;;;39.10;18.75;;;-2.60;99.90;;;;;;5074566;28;20358;-95
2022/01/23 16:54:08;;;;;;;44.15;18.80;;;-2.60;99.90;;;;;;5074056;28;20017;-94
2022/01/23 16:56:36;;;;;;;41.65;18.10;;;-2.60;99.90;;;;;;5074861;28;20107;-94
2022/01/23 16:59:03;;;;;;;49.33;19.60;;;-2.60;99.90;;;;;;5074657;28;20032;-95
2022/01/23 17:01:32;;;;;;;100.18;35.83;;;-2.70;99.90;;;;;;5074557;28;20047;-94
2022/01/23 17:04:35;;;;;;;45.92;19.75;;;-2.70;99.90;;;;;;5074679;28;20024;-96
2022/01/23 17:07:08;;;;;;;48.50;22.05;;;-2.70;99.90;;;;;;5038109;28;20171;-95
2022/01/23 17:09:34;;;;;;;44.80;20.15;;;-2.80;99.90;;;;;;5054634;28;20497;-94
2022/01/23 17:11:59;;;;;;;52.20;20.48;;;-2.70;99.90;;;;;;5054232;28;20048;-94
2022/01/23 17:14:26;;;;;;;50.42;23.33;;;-2.70;99.90;;;;;;5054340;28;20111;-95
2022/01/23 17:16:52;;;;;;;44.78;20.60;;;-2.80;99.90;;;;;;5053867;28;20029;-94
2022/01/23 17:19:18;;;;;;;53.80;24.17;;;-2.80;99.90;;;;;;5054032;28;20036;-94
2022/01/23 17:21:44;;;;;;;47.40;20.98;;;-2.80;99.90;;;;;;5053993;28;20092;-95
2022/01/23 17:24:09;;;;;;;39.67;19.30;;;-2.70;99.90;;;;;;5053775;28;20032;-95
2022/01/23 17:26:35;;;;;;;39.00;18.02;;;-2.80;99.90;;;;;;5053785;28;20024;-94
2022/01/23 17:29:01;;;;;;;38.47;19.13;;;-2.70;99.90;;;;;;5053624;28;20049;-94
2022/01/23 17:31:26;;;;;;;45.00;19.65;;;-2.70;99.90;;;;;;5054225;28;20032;-94
2022/01/23 17:33:52;;;;;;;48.13;19.83;;;-2.70;99.90;;;;;;5054395;28;20025;-94
2022/01/23 17:36:18;;;;;;;47.95;20.67;;;-2.60;99.90;;;;;;5053905;28;20025;-94
2022/01/23 17:38:49;;;;;;;45.63;20.58;;;-2.60;99.90;;;;;;5053996;28;20091;-94
2022/01/23 17:41:16;;;;;;;53.10;20.75;;;-2.60;99.90;;;;;;5053821;28;20021;-94
2022/01/23 17:43:42;;;;;;;42.50;20.80;;;-2.50;99.90;;;;;;5053870;28;20455;-94
2022/01/23 17:46:11;;;;;;;41.95;19.42;;;-2.50;99.90;;;;;;5053650;28;20029;-94
2022/01/23 17:48:50;;;;;;;46.33;21.42;;;-2.40;99.90;;;;;;5054573;28;20440;-95
2022/01/23 17:51:16;;;;;;;40.55;18.08;;;-2.50;99.90;;;;;;5053494;28;20046;-93
2022/01/23 17:53:47;;;;;;;43.97;19.10;;;-2.40;99.90;;;;;;5054409;28;20468;-95
2022/01/23 17:56:13;;;;;;;;;;;-2.40;99.90;;;;;;5054731;28;20459;-95
2022/01/23 17:58:39;;;;;;;46.92;20.85;;;-2.40;99.90;;;;;;5053601;28;19905;-95
2022/01/23 18:01:05;;;;;;;55.08;23.55;;;-2.40;99.90;;;;;;5053709;28;20120;-95
2022/01/23 18:03:31;;;;;;;58.42;25.20;;;-2.40;99.90;;;;;;5053581;28;20155;-95
2022/01/23 18:06:01;;;;;;;58.47;25.15;;;-2.30;99.90;;;;;;5053991;28;20460;-94
2022/01/23 18:08:30;;;;;;;59.33;26.08;;;-2.30;99.90;;;;;;5053732;28;20031;-94
2022/01/23 18:10:56;;;;;;;65.00;30.65;;;-2.30;99.90;;;;;;5053240;28;20036;-95
2022/01/23 18:13:24;;;;;;;68.28;32.15;;;-2.30;99.90;;;;;;5054202;28;20021;-94
2022/01/23 18:15:51;;;;;;;58.67;25.60;;;-2.30;99.90;;;;;;5054013;28;20025;-94
2022/01/23 18:18:18;;;;;;;49.30;24.13;;;-2.40;99.90;;;;;;5054654;28;20027;-94
2022/01/23 18:20:44;;;;;;;46.13;22.50;;;-2.40;99.90;;;;;;5053917;28;20028;-94
2022/01/23 18:23:10;;;;;;;53.22;24.15;;;-2.40;99.90;;;;;;5064801;28;20056;-94
2022/01/23 18:25:44;;;;;;;60.55;25.75;;;-2.40;99.90;;;;;;5073234;28;20036;-94
2022/01/23 18:28:11;;;;;;;71.68;27.13;;;-2.30;99.90;;;;;;5073487;28;20025;-95
2022/01/23 18:31:29;;;;;;;46.10;20.13;;;-2.40;99.90;;;;;;5072977;28;20049;-95
2022/01/23 18:33:56;;;;;;;40.17;16.63;;;-2.40;99.90;;;;;;4977018;28;20027;-94
2022/01/23 18:36:21;;;;;;;42.45;17.92;;;-2.40;99.90;;;;;;5064096;28;20082;-94
2022/01/23 18:38:47;;;;;;;41.17;16.83;;;-2.50;99.90;;;;;;5072623;28;20044;-95
2022/01/23 18:41:13;;;;;;;36.85;16.33;;;-2.50;99.90;;;;;;5072630;28;20028;-94
2022/01/23 18:43:39;;;;;;;41.28;18.10;;;-2.50;99.90;;;;;;5072664;28;20025;-95
2022/01/23 18:46:04;;;;;;;33.92;15.95;;;-2.50;99.90;;;;;;5072904;28;20020;-94
2022/01/23 18:48:30;;;;;;;39.20;17.38;;;-2.50;99.90;;;;;;5072716;28;20043;-95
2022/01/23 18:50:58;;;;;;;34.35;15.75;;;-2.50;99.90;;;;;;5072641;28;20509;-95
2022/01/23 18:53:34;;;;;;;37.30;15.57;;;-2.50;99.90;;;;;;5072805;28;20048;-94
2022/01/23 18:56:01;;;;;;;35.63;16.67;;;-2.60;99.90;;;;;;5072831;28;20027;-94
2022/01/23 18:58:32;;;;;;;36.20;17.02;;;-2.60;99.90;;;;;;5073870;28;20112;-95
2022/01/23 19:01:02;;;;;;;31.40;15.27;;;-2.50;99.90;;;;;;5072820;28;20032;-94
2022/01/23 19:03:34;;;;;;;38.25;17.13;;;-2.60;99.90;;;;;;5072783;28;20028;-95
2022/01/23 19:06:12;;;;;;;37.83;16.92;;;-2.50;99.90;;;;;;5073734;28;20038;-95
2022/01/23 19:08:39;;;;;;;33.88;15.15;;;-2.60;99.90;;;;;;5073399;28;20020;-95
2022/01/23 19:11:06;;;;;;;36.20;15.85;;;-2.60;99.90;;;;;;5072816;28;20017;-94
2022/01/23 19:13:32;;;;;;;40.78;16.77;;;-2.60;99.90;;;;;;5072793;28;20024;-95
2022/01/23 19:15:59;;;;;;;33.75;15.32;;;-2.60;99.90;;;;;;5073969;28;20127;-94
2022/01/23 19:18:27;;;;;;;32.58;15.25;;;-2.60;99.90;;;;;;5076131;28;20111;-94
2022/01/23 19:20:53;;;;;;;36.58;17.67;;;-2.60;99.90;;;;;;5076126;28;20024;-94
2022/01/23 19:23:20;;;;;;;33.75;15.35;;;-2.60;99.90;;;;;;5076140;28;20029;-94
2022/01/23 19:25:47;;;;;;;35.00;16.83;;;-2.60;99.90;;;;;;5076134;28;20107;-95
2022/01/23 19:28:12;;;;;;;39.72;16.98;;;-2.60;99.90;;;;;;5076164;28;20124;-95
2022/01/23 19:30:41;;;;;;;38.10;17.00;;;-2.60;99.90;;;;;;5076062;28;20470;-95
2022/01/23 19:33:10;;;;;;;42.05;16.45;;;-2.60;99.90;;;;;;5076337;28;20063;-94
2022/01/23 19:35:37;;;;;;;38.90;16.58;;;-2.50;99.90;;;;;;5076157;28;20466;-95
2022/01/23 19:38:24;;;;;;;39.30;17.27;;;-2.50;99.90;;;;;;5076356;28;20020;-96
2022/01/23 19:41:09;;;;;;;35.70;16.15;;;-2.50;99.90;;;;;;5076823;28;20033;-95
2022/01/23 19:46:11;;;;;;;35.92;16.52;;;-2.50;99.90;;;;;;5077315;28;20060;-95
2022/01/23 19:48:55;;;;;;;49.28;20.10;;;-2.40;99.90;;;;;;5075693;28;20033;-94
2022/01/23 19:51:21;;;;;;;39.28;18.27;;;-2.40;99.90;;;;;;5075998;28;20024;-94
2022/01/23 19:53:47;;;;;;;35.53;16.45;;;-2.40;99.90;;;;;;5075879;28;20032;-94
2022/01/23 19:56:14;;;;;;;33.53;16.95;;;-2.40;99.90;;;;;;5075668;28;20028;-94
2022/01/23 19:58:40;;;;;;;32.65;14.75;;;-2.50;99.90;;;;;;5075938;28;20024;-95
2022/01/23 20:01:06;;;;;;;32.30;16.10;;;-2.50;99.90;;;;;;5075933;28;20024;-94
2022/01/23 20:03:32;;;;;;;34.58;15.95;;;-2.40;99.90;;;;;;5076432;28;20040;-92
2022/01/23 20:05:58;;;;;;;36.72;16.73;;;-2.40;99.90;;;;;;5076409;28;20443;-94
2022/01/23 20:08:26;;;;;;;39.13;16.20;;;-2.50;99.90;;;;;;5075615;28;20031;-94
2022/01/23 20:11:11;;;;;;;33.60;16.70;;;-2.40;99.90;;;;;;5075654;28;20024;-95
2022/01/23 20:13:37;;;;;;;37.42;16.92;;;-2.40;99.90;;;;;;5075372;28;20027;-93
2022/01/23 20:16:04;;;;;;;36.38;17.02;;;-2.50;99.90;;;;;;5075452;28;20025;-94
2022/01/23 20:18:29;;;;;;;43.47;19.33;;;-2.50;99.90;;;;;;5076278;28;20024;-95
2022/01/23 20:20:55;;;;;;;40.00;18.98;;;-2.40;99.90;;;;;;5075441;28;20524;-94
2022/01/23 20:23:21;;;;;;;45.08;20.20;;;-2.40;99.90;;;;;;5075478;28;20024;-95
2022/01/23 20:25:47;;;;;;;36.80;15.55;;;-2.40;99.90;;;;;;5075361;28;20029;-95
2022/01/23 20:28:13;;;;;;;41.40;16.67;;;-2.40;99.90;;;;;;5075076;28;20033;-94
2022/01/23 20:30:39;;;;;;;41.83;16.73;;;-2.40;99.90;;;;;;5075432;28;20091;-94
2022/01/23 20:33:05;;;;;;;27.48;13.57;;;-2.50;99.90;;;;;;5075260;28;20415;-94
2022/01/23 20:35:31;;;;;;;30.60;14.82;;;-2.50;99.90;;;;;;5075159;28;20024;-94
2022/01/23 20:37:57;;;;;;;27.25;13.65;;;-2.50;99.90;;;;;;5075172;28;20032;-94
2022/01/23 20:40:34;;;;;;;26.67;14.02;;;-2.50;99.90;;;;;;5074992;28;20036;-95
2022/01/23 20:43:00;;;;;;;26.65;13.10;;;-2.60;99.90;;;;;;5075075;28;20024;-94
2022/01/23 20:45:28;;;;;;;29.70;12.63;;;-2.60;99.90;;;;;;5075010;28;20380;-94
2022/01/23 20:47:53;;;;;;;27.48;13.48;;;-2.60;99.90;;;;;;5075380;28;20108;-93
2022/01/23 20:50:20;;;;;;;29.38;13.82;;;-2.60;99.90;;;;;;5075795;28;20075;-94
2022/01/23 20:53:07;;;;;;;24.85;12.38;;;-2.70;99.90;;;;;;5074905;28;20025;-93
2022/01/23 20:55:34;;;;;;;29.13;13.13;;;-2.70;99.90;;;;;;5075619;28;20028;-92
2022/01/23 20:58:00;;;;;;;26.70;12.52;;;-2.70;99.90;;;;;;5074880;28;20028;-93
2022/01/23 21:00:25;;;;;;;30.88;14.60;;;-2.70;99.90;;;;;;5074500;28;20387;-94
2022/01/23 21:02:51;;;;;;;26.77;13.27;;;-2.70;99.90;;;;;;5074772;28;20036;-94
2022/01/23 21:05:18;;;;;;;29.15;13.27;;;-2.80;99.90;;;;;;5074850;28;20051;-93
2022/01/23 21:07:43;;;;;;;25.70;12.70;;;-2.80;99.90;;;;;;5074839;28;20032;-94
2022/01/23 21:10:10;;;;;;;29.70;13.07;;;-2.80;99.90;;;;;;5074410;28;20033;-94
2022/01/23 21:12:40;;;;;;;25.08;11.75;;;-2.80;99.90;;;;;;5074689;28;20031;-94
2022/01/23 21:15:33;;;;;;;;;;;-2.80;99.90;;;;;;5074690;28;20070;-94
2022/01/23 21:41:08;;;;;;;28.92;14.35;;;-3.00;99.90;;;;;;5075421;28;20020;-94
2022/01/23 21:43:34;;;;;;;32.85;15.68;;;-3.10;99.90;;;;;;5057752;28;20135;-93
2022/01/23 21:46:00;;;;;;;29.10;16.40;;;-3.20;99.90;;;;;;5056971;28;20020;-94
2022/01/23 21:48:27;;;;;;;25.70;12.45;;;-3.30;99.90;;;;;;5057077;28;20017;-95
2022/01/23 21:50:53;;;;;;;26.50;12.30;;;-3.30;99.90;;;;;;5057013;28;20028;-93
2022/01/23 21:53:22;;;;;;;27.95;13.35;;;-3.40;99.90;;;;;;5056922;28;20024;-95
2022/01/23 21:55:48;;;;;;;34.40;14.32;;;-3.40;99.90;;;;;;5056897;28;20052;-94
2022/01/23 21:58:14;;;;;;;34.03;15.10;;;-3.30;99.90;;;;;;5056792;28;20024;-93
2022/01/23 22:00:40;;;;;;;37.78;14.15;;;-3.30;99.90;;;;;;5057078;28;20123;-93
2022/01/23 22:03:06;;;;;;;24.83;12.95;;;-3.30;99.90;;;;;;5057360;28;20052;-94
2022/01/23 22:05:32;;;;;;;38.55;16.55;;;-3.30;99.90;;;;;;5057792;28;20535;-94
2022/01/23 22:07:59;;;;;;;40.42;18.30;;;-3.30;99.90;;;;;;5057563;28;20471;-94
2022/01/23 22:18:06;;;;;;;31.20;15.90;;;-3.10;99.90;;;;;;5074852;28;20027;-95
2022/01/23 22:20:33;;;;;;;35.05;15.90;;;-3.20;99.90;;;;;;5056409;28;20123;-94
2022/01/23 22:23:33;;;;;;;43.78;17.35;;;-3.20;99.90;;;;;;5057379;28;20025;-95
2022/01/23 22:28:29;;;;;;;31.55;13.88;;;-3.10;99.90;;;;;;5074272;28;20082;-95
2022/01/23 22:30:55;;;;;;;39.75;16.65;;;-3.20;99.90;;;;;;5056486;28;20426;-93
2022/01/23 22:33:21;;;;;;;30.75;14.25;;;-3.20;99.90;;;;;;5056612;28;20078;-94
2022/01/23 22:35:51;;;;;;;31.60;15.13;;;-3.30;99.90;;;;;;5056623;28;20024;-94
2022/01/23 22:38:22;;;;;;;44.60;17.75;;;-3.30;99.90;;;;;;5057301;28;20040;-95
2022/01/23 22:40:48;;;;;;;37.50;16.15;;;-3.30;99.90;;;;;;5056565;28;20067;-93
2022/01/23 22:43:19;;;;;;;29.67;13.13;;;-3.20;99.90;;;;;;5056473;28;20104;-93
2022/01/23 22:45:58;;;;;;;61.83;16.73;;;-3.30;99.90;;;;;;5057648;28;20340;-94
2022/01/23 22:48:24;;;;;;;39.08;15.70;;;-3.20;99.90;;;;;;5056505;28;20035;-93
2022/01/23 22:50:50;;;;;;;32.53;15.55;;;-3.30;99.90;;;;;;5057361;28;20527;-94
2022/01/23 22:53:16;;;;;;;30.67;14.00;;;-3.40;99.90;;;;;;5061259;28;20351;-94
2022/01/23 22:55:42;;;;;;;28.95;13.00;;;-3.40;99.90;;;;;;5061070;28;20344;-94
2022/01/23 22:58:08;;;;;;;31.02;13.88;;;-3.50;99.90;;;;;;5060357;28;20016;-94
2022/01/23 23:00:46;;;;;;;33.90;14.90;;;-3.60;99.90;;;;;;5060201;28;20025;-94
2022/01/23 23:03:14;;;;;;;33.28;13.02;;;-3.60;99.90;;;;;;5060957;28;20039;-94
2022/01/23 23:05:41;;;;;;;25.58;11.20;;;-3.70;99.90;;;;;;5060996;28;20028;-94
2022/01/23 23:08:06;;;;;;;28.42;13.38;;;-3.70;99.90;;;;;;5060411;28;20111;-94
2022/01/23 23:10:36;;;;;;;34.85;15.18;;;-3.70;99.90;;;;;;5059991;28;20174;-94
2022/01/23 23:13:03;;;;;;;25.08;12.63;;;-3.80;99.90;;;;;;5060008;28;20028;-94
2022/01/23 23:15:36;;;;;;;25.33;12.75;;;-3.80;99.90;;;;;;5060373;28;20535;-94
2022/01/23 23:18:05;;;;;;;26.48;12.73;;;-3.90;99.90;;;;;;5061050;28;20028;-94
2022/01/23 23:20:32;;;;;;;22.95;11.35;;;-3.80;99.90;;;;;;5059657;28;20443;-94
2022/01/23 23:22:58;;;;;;;29.60;14.52;;;-3.80;99.90;;;;;;5059772;28;20033;-94
2022/01/23 23:25:23;;;;;;;30.48;14.23;;;-3.80;99.90;;;;;;5060182;28;20078;-93
2022/01/23 23:27:49;;;;;;;21.52;10.77;;;-3.80;99.90;;;;;;5060044;28;20024;-92
2022/01/23 23:30:16;;;;;;;24.63;10.73;;;-3.80;99.90;;;;;;5060051;28;20056;-93
2022/01/23 23:32:42;;;;;;;22.33;10.65;;;-3.80;99.90;;;;;;5060334;28;20020;-93
2022/01/23 23:35:08;;;;;;;27.55;11.77;;;-3.80;99.90;;;;;;5060344;28;20020;-94
2022/01/23 23:37:34;;;;;;;22.27;10.82;;;-3.80;99.90;;;;;;5060007;28;20028;-94
2022/01/23 23:40:05;;;;;;;24.70;11.38;;;-3.80;99.90;;;;;;5060377;28;20021;-93
2022/01/23 23:42:40;;;;;;;23.95;10.80;;;-3.80;99.90;;;;;;5059488;28;20020;-93
2022/01/23 23:45:08;;;;;;;27.92;11.52;;;-3.80;99.90;;;;;;5059350;28;20020;-93
2022/01/23 23:47:35;;;;;;;25.50;11.50;;;-3.80;99.90;;;;;;5060193;28;20466;-94
2022/01/23 23:50:01;;;;;;;23.45;10.60;;;-3.80;99.90;;;;;;5060449;28;20381;-94
2022/01/23 23:52:38;;;;;;;24.15;11.77;;;-3.80;99.90;;;;;;5059063;28;20116;-94
2022/01/23 23:55:05;;;;;;;32.35;12.27;;;-3.90;99.90;;;;;;5059198;28;20024;-93
2022/01/23 23:57:31;;;;;;;22.52;11.45;;;-3.90;99.90;;;;;;5059431;28;20111;-93
2022/01/23 23:59:57;;;;;;;31.60;13.35;;;-3.90;99.90;;;;;;5060144;28;20051;-92
